^^
Your Local Weather - Clay, NY Station Historical Data
Daily Summary for July 10, 2017 Units:  English    Metric   Both
« Previous Day
Next Day »
Daily Weekly Monthly Yearly Custom
  High: Low: Average:
Temperature: 80.4 °F 60.5 °F 71.5 °F
Dew Point: 64.0 °F 53.4 °F 57.5 °F
Humidity: 92% 42% 64%
Wind Speed: 6.0mph 0.0mph 1.7mph
Wind Gust: 12.0mph - -
Wind- - SW
Pressure: 29.94 in 29.86 in -
Precipitation: 0.04 in    
Historical Graphs
 
 
Tabular Data for July 10, 2017
Time Temperature Dew Point Pressure Wind Wind Speed Wind Gust Humidity Rainfall Rate (Hourly) solar
00:04 61.6 °F 57.0 °F 29.93 in Calm     85% 0.00 in 0 W/m2
00:10 61.5 °F 56.9 °F 29.93 in Calm     85% 0.00 in 0 W/m2
00:16 61.5 °F 57.3 °F 29.94 in Calm     86% 0.00 in 0 W/m2
00:22 61.3 °F 57.1 °F 29.94 in Calm     86% 0.00 in 0 W/m2
00:28 61.3 °F 57.1 °F 29.94 in Calm     86% 0.00 in 0 W/m2
00:34 61.1 °F 56.9 °F 29.94 in Calm     86% 0.00 in 0 W/m2
00:40 61.0 °F 56.8 °F 29.94 in Calm     86% 0.00 in 0 W/m2
00:46 61.1 °F 57.2 °F 29.94 in Calm     87% 0.00 in 0 W/m2
00:52 61.3 °F 57.4 °F 29.94 in Calm     87% 0.00 in 0 W/m2
00:58 61.3 °F 57.4 °F 29.94 in Calm     87% 0.00 in 0 W/m2
01:04 61.3 °F 57.4 °F 29.94 in Calm     87% 0.00 in 0 W/m2
01:10 61.4 °F 57.8 °F 29.93 in Calm     88% 0.00 in 0 W/m2
01:16 61.4 °F 57.8 °F 29.93 in Calm     88% 0.00 in 0 W/m2
01:22 61.3 °F 57.7 °F 29.93 in Calm     88% 0.00 in 0 W/m2
01:28 61.2 °F 57.6 °F 29.93 in Calm     88% 0.00 in 0 W/m2
01:34 61.1 °F 57.5 °F 29.93 in Calm     88% 0.00 in 0 W/m2
01:40 60.9 °F 57.3 °F 29.93 in Calm     88% 0.00 in 0 W/m2
01:46 61.0 °F 57.4 °F 29.93 in Calm     88% 0.00 in 0 W/m2
01:52 61.2 °F 57.6 °F 29.93 in Calm     88% 0.00 in 0 W/m2
01:58 61.5 °F 57.9 °F 29.93 in Calm     88% 0.00 in 0 W/m2
02:04 61.7 °F 57.8 °F 29.93 in Calm     87% 0.00 in 0 W/m2
02:10 61.7 °F 57.8 °F 29.93 in Calm     87% 0.00 in 0 W/m2
02:16 61.6 °F 57.7 °F 29.94 in Calm     87% 0.00 in 0 W/m2
02:22 61.5 °F 57.6 °F 29.94 in Calm     87% 0.00 in 0 W/m2
02:28 61.2 °F 57.6 °F 29.93 in Calm     88% 0.00 in 0 W/m2
02:34 60.9 °F 57.0 °F 29.93 in Calm     87% 0.00 in 0 W/m2
02:40 60.6 °F 57.0 °F 29.94 in Calm     88% 0.00 in 0 W/m2
02:46 60.5 °F 56.9 °F 29.93 in Calm   1.0 mph 88% 0.00 in 0 W/m2
02:52 60.6 °F 57.3 °F 29.93 in Calm     89% 0.00 in 0 W/m2
02:58 60.9 °F 57.3 °F 29.93 in Calm   1.0 mph 88% 0.00 in 0 W/m2
03:04 61.4 °F 57.5 °F 29.93 in WSW 1.0 mph 1.0 mph 87% 0.00 in 0 W/m2
03:10 61.8 °F 57.2 °F 29.93 in Calm   1.0 mph 85% 0.00 in 0 W/m2
03:16 62.2 °F 57.0 °F 29.93 in Calm   1.0 mph 83% 0.00 in 0 W/m2
03:22 63.0 °F 56.7 °F 29.93 in WSW 1.0 mph 2.0 mph 80% 0.00 in 0 W/m2
03:28 63.8 °F 56.8 °F 29.93 in WSW 1.0 mph 2.0 mph 78% 0.00 in 0 W/m2
03:34 64.3 °F 56.6 °F 29.93 in WSW 1.0 mph 2.0 mph 76% 0.00 in 0 W/m2
03:40 64.4 °F 57.0 °F 29.93 in WSW 1.0 mph 2.0 mph 77% 0.00 in 0 W/m2
03:46 64.3 °F 56.6 °F 29.93 in Calm   2.0 mph 76% 0.00 in 0 W/m2
03:52 64.2 °F 56.8 °F 29.93 in Calm     77% 0.00 in 0 W/m2
03:58 64.1 °F 56.4 °F 29.93 in Calm   2.0 mph 76% 0.00 in 0 W/m2
04:04 64.5 °F 55.7 °F 29.92 in SSE 1.0 mph 2.0 mph 73% 0.00 in 0 W/m2
04:10 65.2 °F 55.6 °F 29.92 in SSW 1.0 mph 2.0 mph 71% 0.00 in 0 W/m2
04:16 65.7 °F 55.6 °F 29.92 in SSW 2.0 mph 3.0 mph 70% 0.00 in 0 W/m2
04:22 66.1 °F 55.2 °F 29.91 in SSW 1.0 mph 3.0 mph 68% 0.00 in 0 W/m2
04:28 66.1 °F 55.2 °F 29.91 in SSW 1.0 mph 3.0 mph 68% 0.00 in 0 W/m2
04:34 66.0 °F 55.1 °F 29.91 in Calm   1.0 mph 68% 0.00 in 0 W/m2
04:40 66.1 °F 54.8 °F 29.91 in Calm     67% 0.00 in 0 W/m2
04:46 66.3 °F 55.0 °F 29.91 in SSW 1.0 mph 3.0 mph 67% 0.00 in 0 W/m2
04:52 66.3 °F 54.6 °F 29.91 in South 1.0 mph 2.0 mph 66% 0.00 in 0 W/m2
04:58 66.5 °F 54.4 °F 29.91 in South 1.0 mph 3.0 mph 65% 0.00 in 0 W/m2
05:04 66.7 °F 54.6 °F 29.91 in South 1.0 mph 1.0 mph 65% 0.00 in 0 W/m2
05:10 66.6 °F 54.9 °F 29.91 in Calm     66% 0.00 in 0 W/m2
05:16 66.0 °F 56.3 °F 29.91 in Calm     71% 0.00 in 0 W/m2
05:22 65.5 °F 56.6 °F 29.91 in Calm     73% 0.00 in 0 W/m2
05:28 64.6 °F 56.1 °F 29.91 in Calm     74% 0.00 in 0 W/m2
05:34 63.9 °F 55.8 °F 29.91 in Calm     75% 0.00 in 0 W/m2
05:40 63.3 °F 55.6 °F 29.92 in Calm     76% 0.00 in 0 W/m2
05:46 62.9 °F 55.2 °F 29.92 in Calm     76% 0.00 in 5 W/m2
05:52 63.0 °F 55.3 °F 29.92 in Calm     76% 0.00 in 9 W/m2
05:58 63.3 °F 56.0 °F 29.92 in Calm     77% 0.00 in 12 W/m2
06:04 63.3 °F 55.6 °F 29.93 in Calm     76% 0.00 in 21 W/m2
06:10 63.5 °F 55.1 °F 29.92 in Calm     74% 0.00 in 28 W/m2
06:16 64.3 °F 55.1 °F 29.92 in SSW 1.0 mph 3.0 mph 72% 0.00 in 39 W/m2
06:22 65.4 °F 55.0 °F 29.92 in SSW 1.0 mph 3.0 mph 69% 0.00 in 40 W/m2
06:28 66.3 °F 55.0 °F 29.92 in SW 1.0 mph 3.0 mph 67% 0.00 in 51 W/m2
06:34 66.7 °F 55.4 °F 29.92 in SSW 2.0 mph 2.0 mph 67% 0.00 in 125 W/m2
06:40 67.2 °F 55.5 °F 29.91 in SSW 2.0 mph 2.0 mph 66% 0.00 in 174 W/m2
06:46 67.8 °F 55.6 °F 29.91 in SSW 2.0 mph 3.0 mph 65% 0.00 in 179 W/m2
06:52 68.3 °F 55.6 °F 29.91 in SW 2.0 mph 4.0 mph 64% 0.00 in 84 W/m2
06:58 68.4 °F 55.7 °F 29.91 in South 2.0 mph 4.0 mph 64% 0.00 in 47 W/m2
07:04 68.2 °F 55.6 °F 29.91 in South 2.0 mph 4.0 mph 64% 0.00 in 51 W/m2
07:10 68.0 °F 55.8 °F 29.91 in SSW 3.0 mph 3.0 mph 65% 0.00 in 183 W/m2
07:16 68.2 °F 55.6 °F 29.91 in SSW 2.0 mph 4.0 mph 64% 0.00 in 90 W/m2
07:22 68.4 °F 55.7 °F 29.91 in SW 2.0 mph 3.0 mph 64% 0.00 in 84 W/m2
07:28 68.7 °F 56.5 °F 29.91 in SW 2.0 mph 3.0 mph 65% 0.00 in 81 W/m2
07:34 68.7 °F 56.0 °F 29.91 in SW 1.0 mph 2.0 mph 64% 0.00 in 72 W/m2
07:40 69.2 °F 56.9 °F 29.91 in SSW 1.0 mph 1.0 mph 65% 0.00 in 311 W/m2
07:46 69.8 °F 56.2 °F 29.91 in SW 1.0 mph 4.0 mph 62% 0.00 in 181 W/m2
07:52 70.1 °F 56.5 °F 29.91 in SW 1.0 mph 1.0 mph 62% 0.00 in 343 W/m2
07:58 70.4 °F 56.8 °F 29.91 in SW 2.0 mph 3.0 mph 62% 0.00 in 265 W/m2
08:04 70.5 °F 56.9 °F 29.91 in WSW 1.0 mph 3.0 mph 62% 0.00 in 142 W/m2
08:10 70.4 °F 56.8 °F 29.92 in West 1.0 mph 1.0 mph 62% 0.00 in 125 W/m2
08:16 70.2 °F 57.0 °F 29.92 in West 1.0 mph 2.0 mph 63% 0.00 in 127 W/m2
08:22 70.2 °F 57.0 °F 29.92 in West 2.0 mph 2.0 mph 63% 0.00 in 130 W/m2
08:28 70.3 °F 57.1 °F 29.92 in SSW 2.0 mph 5.0 mph 63% 0.00 in 162 W/m2
08:34 70.3 °F 57.1 °F 29.92 in SW 2.0 mph 3.0 mph 63% 0.00 in 153 W/m2
08:40 70.9 °F 57.7 °F 29.93 in SW 2.0 mph 2.0 mph 63% 0.00 in 494 W/m2
08:46 71.8 °F 57.2 °F 29.93 in SW 1.0 mph 4.0 mph 60% 0.00 in 464 W/m2
08:52 72.6 °F 58.4 °F 29.93 in SW 2.0 mph 2.0 mph 61% 0.00 in 534 W/m2
08:58 73.5 °F 58.3 °F 29.93 in WSW 1.0 mph 3.0 mph 59% 0.00 in 571 W/m2
09:04 73.3 °F 57.1 °F 29.93 in SSW 2.0 mph 5.0 mph 57% 0.00 in 221 W/m2
09:10 73.2 °F 57.5 °F 29.93 in WSW 3.0 mph 3.0 mph 58% 0.00 in 534 W/m2
09:22 73.9 °F 58.7 °F 29.93 in SSW 3.0 mph 3.0 mph 59% 0.00 in 598 W/m2
09:28 74.6 °F 60.3 °F 29.93 in SSW 2.0 mph 6.0 mph 61% 0.00 in 601 W/m2
09:34 75.3 °F 59.5 °F 29.92 in WSW 1.0 mph 2.0 mph 58% 0.00 in 613 W/m2
09:40 75.7 °F 58.4 °F 29.92 in WSW 1.0 mph 1.0 mph 55% 0.00 in 628 W/m2
09:46 75.9 °F 57.5 °F 29.92 in WSW 2.0 mph 5.0 mph 53% 0.00 in 652 W/m2
09:52 76.0 °F 58.2 °F 29.92 in SSW 3.0 mph 3.0 mph 54% 0.00 in 663 W/m2
09:58 76.1 °F 57.2 °F 29.92 in SW 4.0 mph 4.0 mph 52% 0.00 in 679 W/m2
10:04 76.5 °F 58.1 °F 29.92 in WSW 4.0 mph 4.0 mph 53% 0.00 in 693 W/m2
10:10 76.8 °F 57.3 °F 29.92 in SW 3.0 mph 3.0 mph 51% 0.00 in 708 W/m2
10:16 76.9 °F 56.8 °F 29.92 in SW 3.0 mph 6.0 mph 50% 0.00 in 724 W/m2
10:22 77.1 °F 58.1 °F 29.92 in WSW 4.0 mph 4.0 mph 52% 0.00 in 758 W/m2
10:28 77.5 °F 57.4 °F 29.92 in SW 4.0 mph 4.0 mph 50% 0.00 in 608 W/m2
10:34 77.7 °F 57.0 °F 29.92 in SSW 3.0 mph 7.0 mph 49% 0.00 in 761 W/m2
10:40 77.7 °F 55.9 °F 29.92 in WSW 4.0 mph 7.0 mph 47% 0.00 in 823 W/m2
10:46 77.9 °F 57.8 °F 29.92 in WSW 4.0 mph 7.0 mph 50% 0.00 in 823 W/m2
10:52 77.9 °F 54.2 °F 29.92 in WSW 5.0 mph 9.0 mph 44% 0.00 in 733 W/m2
10:58 78.2 °F 56.3 °F 29.92 in WSW 5.0 mph 9.0 mph 47% 0.00 in 921 W/m2
11:04 78.2 °F 56.3 °F 29.92 in SW 4.0 mph 5.0 mph 47% 0.00 in 624 W/m2
11:10 78.4 °F 57.7 °F 29.92 in SE 4.0 mph 4.0 mph 49% 0.00 in 889 W/m2
11:16 78.4 °F 55.9 °F 29.92 in South 4.0 mph 5.0 mph 46% 0.00 in 401 W/m2
11:22 78.1 °F 55.6 °F 29.91 in WSW 5.0 mph 6.0 mph 46% 0.00 in 905 W/m2
11:28 78.4 °F 55.3 °F 29.92 in SW 4.0 mph 6.0 mph 45% 0.00 in 837 W/m2
11:34 77.8 °F 53.5 °F 29.92 in WSW 3.0 mph 4.0 mph 43% 0.00 in 383 W/m2
11:40 77.7 °F 53.4 °F 29.92 in SW 4.0 mph 12.0 mph 43% 0.00 in 408 W/m2
11:46 77.5 °F 54.5 °F 29.92 in SSW 4.0 mph 12.0 mph 45% 0.00 in 559 W/m2
11:52 78.1 °F 56.2 °F 29.92 in SSW 4.0 mph 4.0 mph 47% 0.00 in 501 W/m2
11:58 78.3 °F 54.6 °F 29.92 in WSW 3.0 mph 5.0 mph 44% 0.00 in 867 W/m2
12:04 78.8 °F 55.7 °F 29.92 in WSW 4.0 mph 5.0 mph 45% 0.00 in 875 W/m2
12:10 79.4 °F 55.6 °F 29.92 in SSW 3.0 mph 7.0 mph 44% 0.00 in 935 W/m2
12:16 79.2 °F 54.8 °F 29.92 in SSW 4.0 mph 7.0 mph 43% 0.00 in 362 W/m2
12:22 79.2 °F 54.8 °F 29.92 in WSW 3.0 mph 4.0 mph 43% 0.00 in 893 W/m2
12:28 78.6 °F 54.9 °F 29.92 in West 4.0 mph 4.0 mph 44% 0.00 in 323 W/m2
12:34 78.2 °F 54.5 °F 29.92 in SW 3.0 mph 7.0 mph 44% 0.00 in 863 W/m2
12:40 78.9 °F 56.4 °F 29.92 in SW 2.0 mph 3.0 mph 46% 0.00 in 847 W/m2
12:46 79.4 °F 54.3 °F 29.92 in SW 2.0 mph 6.0 mph 42% 0.00 in 937 W/m2
12:52 79.0 °F 55.2 °F 29.92 in SW 3.0 mph 8.0 mph 44% 0.00 in 865 W/m2
12:58 79.0 °F 55.2 °F 29.92 in WSW 3.0 mph 8.0 mph 44% 0.00 in 831 W/m2
13:04 79.3 °F 55.5 °F 29.92 in SE 2.0 mph 3.0 mph 44% 0.00 in 722 W/m2
13:10 79.3 °F 56.1 °F 29.92 in SW 3.0 mph 3.0 mph 45% 0.00 in 856 W/m2
13:16 79.8 °F 56.6 °F 29.92 in SW 2.0 mph 3.0 mph 45% 0.00 in 863 W/m2
13:22 80.4 °F 55.2 °F 29.92 in SE 1.0 mph 5.0 mph 42% 0.00 in 940 W/m2
13:28 79.4 °F 55.0 °F 29.91 in SW 3.0 mph 5.0 mph 43% 0.00 in 332 W/m2
13:34 79.6 °F 57.0 °F 29.92 in SW 4.0 mph 6.0 mph 46% 0.00 in 568 W/m2
13:40 79.3 °F 54.9 °F 29.92 in SSW 4.0 mph 7.0 mph 43% 0.00 in 624 W/m2
13:46 78.7 °F 55.0 °F 29.91 in SSW 5.0 mph 7.0 mph 44% 0.00 in 397 W/m2
13:52 79.0 °F 53.9 °F 29.91 in South 5.0 mph 6.0 mph 42% 0.00 in 606 W/m2
13:58 78.7 °F 55.0 °F 29.91 in WSW 6.0 mph 7.0 mph 44% 0.00 in 403 W/m2
14:04 78.9 °F 61.4 °F 29.91 in SW 4.0 mph 6.0 mph 55% 0.00 in 404 W/m2
14:10 79.1 °F 55.3 °F 29.91 in SE 4.0 mph 6.0 mph 44% 0.00 in 385 W/m2
14:14 79.0 °F 57.0 °F 29.91 in SSE 5.0 mph 11.0 mph 47% 0.00 in 413 W/m2
14:20 78.7 °F 56.8 °F 29.91 in WSW 5.0 mph 5.0 mph 47% 0.00 in 457 W/m2
14:26 79.6 °F 58.8 °F 29.91 in South 4.0 mph 7.0 mph 49% 0.00 in 710 W/m2
14:32 79.2 °F 55.4 °F 29.91 in SW 5.0 mph 8.0 mph 44% 0.00 in 652 W/m2
14:38 79.0 °F 54.6 °F 29.91 in SW 5.0 mph 8.0 mph 43% 0.00 in 364 W/m2
14:44 79.1 °F 57.1 °F 29.90 in SSE 3.0 mph 5.0 mph 47% 0.00 in 443 W/m2
14:50 79.7 °F 57.1 °F 29.90 in SW 3.0 mph 4.0 mph 46% 0.00 in 650 W/m2
14:56 79.7 °F 55.2 °F 29.90 in SSW 4.0 mph 6.0 mph 43% 0.00 in 512 W/m2
15:02 79.7 °F 56.5 °F 29.90 in WSW 3.0 mph 4.0 mph 45% 0.00 in 643 W/m2
15:08 79.7 °F 56.5 °F 29.90 in SSW 4.0 mph 6.0 mph 45% 0.00 in 494 W/m2
15:14 79.5 °F 56.9 °F 29.90 in WSW 4.0 mph 4.0 mph 46% 0.00 in 446 W/m2
15:20 79.3 °F 56.1 °F 29.90 in WSW 3.0 mph 4.0 mph 45% 0.00 in 510 W/m2
15:26 79.2 °F 57.2 °F 29.90 in SW 4.0 mph 4.0 mph 47% 0.00 in 410 W/m2
15:32 79.3 °F 56.7 °F 29.89 in SSW 4.0 mph 4.0 mph 46% 0.00 in 497 W/m2
15:38 79.5 °F 56.9 °F 29.89 in SW 3.0 mph 4.0 mph 46% 0.00 in 408 W/m2
15:44 79.2 °F 56.6 °F 29.89 in WSW 2.0 mph 3.0 mph 46% 0.00 in 394 W/m2
15:50 78.9 °F 57.5 °F 29.89 in SW 2.0 mph 4.0 mph 48% 0.00 in 346 W/m2
15:56 78.7 °F 56.2 °F 29.89 in SSW 4.0 mph 6.0 mph 46% 0.00 in 308 W/m2
16:02 78.6 °F 57.8 °F 29.89 in SW 4.0 mph 6.0 mph 49% 0.00 in 352 W/m2
16:08 78.6 °F 56.7 °F 29.89 in South 3.0 mph 6.0 mph 47% 0.00 in 397 W/m2
16:14 78.9 °F 57.5 °F 29.89 in SSW 3.0 mph 4.0 mph 48% 0.00 in 374 W/m2
16:20 78.7 °F 56.2 °F 29.89 in SSW 3.0 mph 5.0 mph 46% 0.00 in 322 W/m2
16:26 78.4 °F 56.5 °F 29.89 in SW 4.0 mph 5.0 mph 47% 0.00 in 283 W/m2
16:32 78.2 °F 56.3 °F 29.89 in West 4.0 mph 5.0 mph 47% 0.00 in 262 W/m2
16:38 77.9 °F 57.2 °F 29.89 in SSW 4.0 mph 5.0 mph 49% 0.00 in 227 W/m2
16:44 77.7 °F 57.0 °F 29.89 in SW 4.0 mph 5.0 mph 49% 0.00 in 221 W/m2
16:50 77.6 °F 56.4 °F 29.89 in WSW 3.0 mph 3.0 mph 48% 0.00 in 232 W/m2
16:56 77.7 °F 55.9 °F 29.89 in WSW 4.0 mph 5.0 mph 47% 0.00 in 281 W/m2
17:02 77.9 °F 56.0 °F 29.88 in SW 4.0 mph 4.0 mph 47% 0.00 in 267 W/m2
17:08 78.2 °F 55.7 °F 29.88 in SW 2.0 mph 4.0 mph 46% 0.00 in 262 W/m2
17:14 78.1 °F 56.8 °F 29.88 in WSW 2.0 mph 2.0 mph 48% 0.00 in 239 W/m2
17:20 78.0 °F 56.1 °F 29.88 in SW 3.0 mph 3.0 mph 47% 0.00 in 176 W/m2
17:26 77.8 °F 56.5 °F 29.88 in SSW 3.0 mph 3.0 mph 48% 0.00 in 174 W/m2
17:32 77.7 °F 55.3 °F 29.88 in SW 3.0 mph 3.0 mph 46% 0.00 in 200 W/m2
17:38 77.7 °F 55.3 °F 29.88 in SW 4.0 mph 4.0 mph 46% 0.00 in 190 W/m2
17:44 77.6 °F 55.8 °F 29.87 in WSW 3.0 mph 4.0 mph 47% 0.00 in 179 W/m2
17:50 77.6 °F 56.9 °F 29.87 in West 3.0 mph 3.0 mph 49% 0.00 in 174 W/m2
17:56 77.5 °F 55.1 °F 29.87 in SSW 3.0 mph 6.0 mph 46% 0.00 in 151 W/m2
18:02 77.4 °F 55.6 °F 29.87 in WSW 3.0 mph 7.0 mph 47% 0.00 in 141 W/m2
18:08 77.3 °F 56.1 °F 29.86 in SW 2.0 mph 7.0 mph 48% 0.00 in 135 W/m2
18:14 77.2 °F 56.0 °F 29.86 in SW 2.0 mph 4.0 mph 48% 0.00 in 130 W/m2
18:20 77.1 °F 55.9 °F 29.86 in SSE 3.0 mph 3.0 mph 48% 0.00 in 121 W/m2
18:26 77.0 °F 56.4 °F 29.86 in South 2.0 mph 3.0 mph 49% 0.00 in 118 W/m2
18:32 76.9 °F 56.8 °F 29.86 in South 1.0 mph 2.0 mph 50% 0.00 in 100 W/m2
18:38 76.9 °F 57.9 °F 29.86 in SW 2.0 mph 6.0 mph 52% 0.00 in 90 W/m2
18:44 76.8 °F 56.8 °F 29.86 in South 2.0 mph 4.0 mph 50% 0.00 in 70 W/m2
18:50 76.6 °F 57.7 °F 29.86 in SSW 3.0 mph 3.0 mph 52% 0.00 in 62 W/m2
18:56 76.3 °F 57.4 °F 29.86 in SSE 3.0 mph 3.0 mph 52% 0.00 in 60 W/m2
19:02 76.2 °F 57.3 °F 29.86 in SW 4.0 mph 7.0 mph 52% 0.00 in 58 W/m2
19:08 76.2 °F 57.3 °F 29.86 in SW 4.0 mph 7.0 mph 52% 0.00 in 54 W/m2
19:14 76.1 °F 57.7 °F 29.86 in South 3.0 mph 3.0 mph 53% 0.00 in 46 W/m2
19:20 76.0 °F 57.6 °F 29.86 in SSW 2.0 mph 2.0 mph 53% 0.00 in 42 W/m2
19:26 75.8 °F 57.4 °F 29.86 in SW 2.0 mph 3.0 mph 53% 0.00 in 40 W/m2
19:32 75.7 °F 57.9 °F 29.86 in SSW 2.0 mph 4.0 mph 54% 0.00 in 26 W/m2
19:38 75.6 °F 57.8 °F 29.86 in SSW 2.0 mph 4.0 mph 54% 0.00 in 23 W/m2
19:44 75.5 °F 57.7 °F 29.86 in South 1.0 mph 3.0 mph 54% 0.00 in 21 W/m2
19:50 75.4 °F 58.1 °F 29.87 in SSW 2.0 mph 2.0 mph 55% 0.00 in 18 W/m2
19:56 75.3 °F 58.0 °F 29.87 in South 2.0 mph 2.0 mph 55% 0.00 in 18 W/m2
20:02 75.2 °F 58.4 °F 29.86 in South 1.0 mph 1.0 mph 56% 0.00 in 12 W/m2
20:08 75.1 °F 58.3 °F 29.87 in South 1.0 mph 1.0 mph 56% 0.00 in 11 W/m2
20:14 74.9 °F 58.6 °F 29.87 in South 1.0 mph 1.0 mph 57% 0.00 in 7 W/m2
20:20 74.7 °F 58.5 °F 29.87 in Calm     57% 0.00 in 7 W/m2
20:26 74.6 °F 58.8 °F 29.87 in South 1.0 mph 1.0 mph 58% 0.00 in 5 W/m2
20:32 74.0 °F 61.0 °F 29.86 in Calm     64% 0.00 in 0 W/m2
20:38 73.0 °F 61.0 °F 29.86 in Calm     66% 0.00 in 0 W/m2
20:44 72.1 °F 61.0 °F 29.86 in Calm     68% 0.00 in 0 W/m2
20:50 71.6 °F 61.7 °F 29.86 in Calm     71% 0.00 in 0 W/m2
20:56 71.2 °F 61.7 °F 29.87 in Calm     72% 0.00 in 0 W/m2
21:02 70.9 °F 61.8 °F 29.87 in Calm     73% 0.00 in 0 W/m2
21:08 70.8 °F 62.1 °F 29.87 in Calm     74% 0.00 in 0 W/m2
21:14 70.6 °F 61.9 °F 29.87 in Calm     74% 0.00 in 0 W/m2
21:20 70.6 °F 61.1 °F 29.88 in Calm     72% 0.00 in 0 W/m2
21:26 71.3 °F 61.0 °F 29.88 in SSW 1.0 mph 1.0 mph 70% 0.00 in 0 W/m2
21:32 71.2 °F 62.9 °F 29.88 in Calm     75% 0.00 in 0 W/m2
21:38 70.4 °F 63.6 °F 29.88 in Calm     79% 0.00 in 0 W/m2
21:44 69.5 °F 63.1 °F 29.88 in Calm     80% 0.00 in 0 W/m2
21:50 68.7 °F 62.6 °F 29.88 in Calm     81% 0.00 in 0 W/m2
21:56 68.2 °F 62.8 °F 29.88 in Calm     83% 0.00 in 0 W/m2
22:04 67.8 °F 62.8 °F 29.88 in Calm     84% 0.00 in 0 W/m2
22:10 67.7 °F 63.0 °F 29.88 in Calm     85% 0.00 in 0 W/m2
22:16 67.4 °F 63.1 °F 29.88 in Calm     86% 0.00 in 0 W/m2
22:22 67.2 °F 63.2 °F 29.88 in Calm     87% 0.00 in 0 W/m2
22:28 67.1 °F 63.4 °F 29.88 in Calm     88% 0.00 in 0 W/m2
22:34 67.0 °F 63.6 °F 29.88 in Calm     89% 0.00 in 0 W/m2
22:40 66.8 °F 63.5 °F 29.88 in Calm     89% 0.00 in 0 W/m2
22:46 66.7 °F 63.4 °F 29.88 in Calm     89% 0.00 in 0 W/m2
22:52 66.6 °F 63.6 °F 29.88 in Calm     90% 0.00 in 0 W/m2
22:58 66.5 °F 63.5 °F 29.88 in Calm     90% 0.00 in 0 W/m2
23:04 66.4 °F 63.4 °F 29.88 in Calm     90% 0.00 in 0 W/m2
23:10 66.3 °F 63.3 °F 29.88 in Calm     90% 0.00 in 0 W/m2
23:16 66.3 °F 63.6 °F 29.88 in Calm     91% 0.00 in 0 W/m2
23:22 66.2 °F 63.5 °F 29.88 in Calm     91% 0.00 in 0 W/m2
23:28 66.1 °F 63.4 °F 29.88 in Calm     91% 0.00 in 0 W/m2
23:34 66.1 °F 63.4 °F 29.88 in Calm     91% 0.00 in 0 W/m2
23:40 66.1 °F 63.7 °F 29.88 in Calm     92% 0.00 in 0 W/m2
23:46 66.3 °F 63.9 °F 29.88 in Calm   1.0 mph 92% 0.00 in 0 W/m2
23:52 66.4 °F 64.0 °F 29.88 in Calm     92% 0.00 in 0 W/m2
23:58 66.4 °F 64.0 °F 29.88 in Calm     92% 0.00 in 0 W/m2
Country Meadow, Clay, NY, USA
Compliments of Weather Underground - 2 mb